Decoded Metar for PABA (BARTER ISLAND in AK, USA) (IATA:BTI) | Meteo·Mobile Aviation Weather
aviador You're here:

PABA Decoded Metar

BARTER ISLAND in AK, USA
Report Time2018-12-10 13:52:00
UTC Time2018-12-10 14:54:28
Flight Rules vfr VFR
Wind040° at 07 kt
W.Decomp.*RWY 07: 3.8 kt HW 5.9 kt LCW
W.Rank040° ranks 17
Current wind is below 040° avg. (7.3)
Visibility9999 m
Phenomena:N/A
Clouds:Overcast 040 Hf
Expected CloudBase > 800 ft AGL from Temp-Dew spread
Ceiling4,000 ft
Temp-24°C (ISA -39)
Dew Point-26°C (84% RH)
AAT-30.3°C
QNH999 hPa
Density Alt-4,537 ft
Elevation7 ft
Report Wrong Elevation
Raw Report
PABA 101352Z AUTO 04007KT 10SM OVC040 M24/M26 A2950=

Extra information for PABA:More info

Airport Information Weather charts Add Link Nearby Venues Social comments

AIRNAV info for PABA